sensor_id;sensor_type;location;lat;lon;timestamp;pressure;altitude;pressure_sealevel;temperature;humidity
16481;BME280;44634;54.110;12.138;2023-04-24T00:00:35;99914.81;;;14.10;100.00
16481;BME280;44634;54.110;12.138;2023-04-24T00:03:04;99907.94;;;14.16;100.00
16481;BME280;44634;54.110;12.138;2023-04-24T00:05:32;99937.13;;;14.24;100.00
16481;BME280;44634;54.110;12.138;2023-04-24T00:08:00;99933.53;;;14.32;100.00
16481;BME280;44634;54.110;12.138;2023-04-24T00:10:28;99911.84;;;13.90;100.00
16481;BME280;44634;54.110;12.138;2023-04-24T00:12:56;99903.47;;;13.79;100.00
16481;BME280;44634;54.110;12.138;2023-04-24T00:15:25;99892.19;;;13.77;100.00
16481;BME280;44634;54.110;12.138;2023-04-24T00:17:53;99893.34;;;13.74;100.00
16481;BME280;44634;54.110;12.138;2023-04-24T00:20:21;99888.72;;;13.76;100.00
16481;BME280;44634;54.110;12.138;2023-04-24T00:22:49;99880.50;;;14.00;100.00
16481;BME280;44634;54.110;12.138;2023-04-24T00:25:16;99871.03;;;13.83;100.00
16481;BME280;44634;54.110;12.138;2023-04-24T00:27:44;99857.38;;;13.86;100.00
16481;BME280;44634;54.110;12.138;2023-04-24T00:30:12;99849.94;;;13.44;100.00
16481;BME280;44634;54.110;12.138;2023-04-24T00:32:41;99823.22;;;13.23;100.00
16481;BME280;44634;54.110;12.138;2023-04-24T00:35:09;99816.78;;;13.78;100.00
16481;BME280;44634;54.110;12.138;2023-04-24T00:37:38;99829.66;;;13.89;100.00
16481;BME280;44634;54.110;12.138;2023-04-24T00:40:06;99856.53;;;14.38;100.00
16481;BME280;44634;54.110;12.138;2023-04-24T00:42:34;99845.91;;;13.71;100.00
16481;BME280;44634;54.110;12.138;2023-04-24T00:45:03;99863.94;;;14.13;100.00
16481;BME280;44634;54.110;12.138;2023-04-24T00:47:32;99853.16;;;13.77;100.00
16481;BME280;44634;54.110;12.138;2023-04-24T00:50:03;99832.56;;;13.79;100.00
16481;BME280;44634;54.110;12.138;2023-04-24T00:52:31;99841.97;;;13.67;100.00
16481;BME280;44634;54.110;12.138;2023-04-24T00:54:59;99812.66;;;13.37;100.00
16481;BME280;44634;54.110;12.138;2023-04-24T00:57:27;99793.56;;;13.57;100.00
16481;BME280;44634;54.110;12.138;2023-04-24T00:59:55;99758.31;;;13.48;100.00
16481;BME280;44634;54.110;12.138;2023-04-24T01:02:23;99743.19;;;13.49;100.00
16481;BME280;44634;54.110;12.138;2023-04-24T01:04:53;99746.59;;;13.72;100.00
16481;BME280;44634;54.110;12.138;2023-04-24T01:07:22;99788.84;;;13.67;100.00
16481;BME280;44634;54.110;12.138;2023-04-24T01:09:50;99784.94;;;13.55;100.00
16481;BME280;44634;54.110;12.138;2023-04-24T01:12:19;99785.19;;;13.97;100.00
16481;BME280;44634;54.110;12.138;2023-04-24T01:14:47;99775.19;;;13.85;100.00
16481;BME280;44634;54.110;12.138;2023-04-24T01:17:14;99766.38;;;13.09;100.00
16481;BME280;44634;54.110;12.138;2023-04-24T01:19:42;99716.97;;;13.08;100.00
16481;BME280;44634;54.110;12.138;2023-04-24T01:22:13;99699.69;;;13.50;100.00
16481;BME280;44634;54.110;12.138;2023-04-24T01:24:41;99716.53;;;13.42;100.00
16481;BME280;44634;54.110;12.138;2023-04-24T01:27:10;99714.38;;;13.23;100.00
16481;BME280;44634;54.110;12.138;2023-04-24T01:29:38;99710.59;;;13.55;100.00
16481;BME280;44634;54.110;12.138;2023-04-24T01:32:06;99707.59;;;13.20;100.00
16481;BME280;44634;54.110;12.138;2023-04-24T01:34:34;99691.13;;;13.25;100.00
16481;BME280;44634;54.110;12.138;2023-04-24T01:37:02;99681.91;;;13.21;100.00
16481;BME280;44634;54.110;12.138;2023-04-24T01:39:32;99665.41;;;13.25;100.00
16481;BME280;44634;54.110;12.138;2023-04-24T01:42:00;99650.88;;;13.21;100.00
16481;BME280;44634;54.110;12.138;2023-04-24T01:44:28;99655.41;;;14.01;100.00
16481;BME280;44634;54.110;12.138;2023-04-24T01:46:56;99668.56;;;13.58;100.00
16481;BME280;44634;54.110;12.138;2023-04-24T01:49:24;99684.03;;;13.40;100.00
16481;BME280;44634;54.110;12.138;2023-04-24T01:51:52;99671.94;;;13.52;100.00
16481;BME280;44634;54.110;12.138;2023-04-24T01:54:20;99663.59;;;13.55;100.00
16481;BME280;44634;54.110;12.138;2023-04-24T01:56:49;99670.03;;;13.90;100.00
16481;BME280;44634;54.110;12.138;2023-04-24T01:59:17;99654.19;;;13.53;100.00
16481;BME280;44634;54.110;12.138;2023-04-24T02:01:45;99652.81;;;13.57;100.00
16481;BME280;44634;54.110;12.138;2023-04-24T02:04:13;99649.31;;;13.86;100.00
16481;BME280;44634;54.110;12.138;2023-04-24T02:06:42;99681.56;;;13.68;100.00
16481;BME280;44634;54.110;12.138;2023-04-24T02:09:09;99652.25;;;13.76;100.00
16481;BME280;44634;54.110;12.138;2023-04-24T02:11:38;99651.25;;;13.62;100.00
16481;BME280;44634;54.110;12.138;2023-04-24T02:14:07;99654.28;;;13.89;100.00
16481;BME280;44634;54.110;12.138;2023-04-24T02:16:34;99629.38;;;13.31;100.00
16481;BME280;44634;54.110;12.138;2023-04-24T02:19:03;99610.31;;;13.57;100.00
16481;BME280;44634;54.110;12.138;2023-04-24T02:21:31;99629.81;;;13.34;100.00
16481;BME280;44634;54.110;12.138;2023-04-24T02:23:59;99597.03;;;13.27;100.00
16481;BME280;44634;54.110;12.138;2023-04-24T02:26:27;99588.84;;;13.73;100.00
16481;BME280;44634;54.110;12.138;2023-04-24T02:28:55;99610.03;;;13.52;100.00
16481;BME280;44634;54.110;12.138;2023-04-24T02:31:24;99593.66;;;13.19;100.00
16481;BME280;44634;54.110;12.138;2023-04-24T02:33:52;99550.06;;;13.28;100.00
16481;BME280;44634;54.110;12.138;2023-04-24T02:36:19;99550.03;;;13.13;100.00
16481;BME280;44634;54.110;12.138;2023-04-24T02:38:47;99529.31;;;13.31;100.00
16481;BME280;44634;54.110;12.138;2023-04-24T02:41:15;99547.75;;;13.69;100.00
16481;BME280;44634;54.110;12.138;2023-04-24T02:43:43;99548.78;;;13.53;100.00
16481;BME280;44634;54.110;12.138;2023-04-24T02:46:10;99544.13;;;13.26;100.00
16481;BME280;44634;54.110;12.138;2023-04-24T02:48:40;99538.56;;;13.35;100.00
16481;BME280;44634;54.110;12.138;2023-04-24T02:51:07;99544.47;;;13.52;100.00
16481;BME280;44634;54.110;12.138;2023-04-24T02:53:36;99594.38;;;13.57;100.00
16481;BME280;44634;54.110;12.138;2023-04-24T02:56:04;99630.19;;;12.94;100.00
16481;BME280;44634;54.110;12.138;2023-04-24T02:58:32;99525.72;;;13.39;100.00
16481;BME280;44634;54.110;12.138;2023-04-24T03:01:00;99576.09;;;13.47;100.00
16481;BME280;44634;54.110;12.138;2023-04-24T03:03:27;99596.94;;;14.01;100.00
16481;BME280;44634;54.110;12.138;2023-04-24T03:05:57;99585.41;;;13.58;100.00
16481;BME280;44634;54.110;12.138;2023-04-24T03:08:25;99599.84;;;14.21;100.00
16481;BME280;44634;54.110;12.138;2023-04-24T03:10:53;99604.13;;;13.86;100.00
16481;BME280;44634;54.110;12.138;2023-04-24T03:13:21;99557.34;;;14.27;100.00
16481;BME280;44634;54.110;12.138;2023-04-24T03:15:48;99569.47;;;14.51;100.00
16481;BME280;44634;54.110;12.138;2023-04-24T03:18:16;99529.72;;;14.22;100.00
16481;BME280;44634;54.110;12.138;2023-04-24T03:20:45;99485.81;;;13.47;100.00
16481;BME280;44634;54.110;12.138;2023-04-24T03:23:15;99452.88;;;13.27;100.00
16481;BME280;44634;54.110;12.138;2023-04-24T03:25:43;99444.53;;;13.30;100.00
16481;BME280;44634;54.110;12.138;2023-04-24T03:28:10;99439.16;;;13.81;100.00
16481;BME280;44634;54.110;12.138;2023-04-24T03:30:38;99439.03;;;13.67;100.00
16481;BME280;44634;54.110;12.138;2023-04-24T03:33:07;99442.06;;;14.07;100.00
16481;BME280;44634;54.110;12.138;2023-04-24T03:35:34;99444.16;;;13.90;100.00
16481;BME280;44634;54.110;12.138;2023-04-24T03:38:02;99434.72;;;13.66;100.00
16481;BME280;44634;54.110;12.138;2023-04-24T03:40:32;99426.47;;;13.76;100.00
16481;BME280;44634;54.110;12.138;2023-04-24T03:43:01;99424.47;;;13.85;100.00
16481;BME280;44634;54.110;12.138;2023-04-24T03:45:28;99424.81;;;13.75;100.00
16481;BME280;44634;54.110;12.138;2023-04-24T03:47:56;99419.38;;;13.62;100.00
16481;BME280;44634;54.110;12.138;2023-04-24T03:50:24;99410.25;;;13.71;100.00
16481;BME280;44634;54.110;12.138;2023-04-24T03:52:53;99417.44;;;13.56;100.00
16481;BME280;44634;54.110;12.138;2023-04-24T03:55:20;99405.31;;;13.68;100.00
16481;BME280;44634;54.110;12.138;2023-04-24T03:57:49;99413.09;;;13.48;100.00
16481;BME280;44634;54.110;12.138;2023-04-24T04:00:17;99413.16;;;13.55;100.00
16481;BME280;44634;54.110;12.138;2023-04-24T04:02:45;99410.13;;;13.58;100.00
16481;BME280;44634;54.110;12.138;2023-04-24T04:05:14;99406.09;;;13.62;100.00
16481;BME280;44634;54.110;12.138;2023-04-24T04:07:41;99405.19;;;13.55;100.00
16481;BME280;44634;54.110;12.138;2023-04-24T04:10:09;99391.91;;;13.76;100.00
16481;BME280;44634;54.110;12.138;2023-04-24T04:12:37;99397.78;;;13.50;100.00
16481;BME280;44634;54.110;12.138;2023-04-24T04:15:07;99403.28;;;13.70;100.00
16481;BME280;44634;54.110;12.138;2023-04-24T04:17:35;99401.44;;;13.70;100.00
16481;BME280;44634;54.110;12.138;2023-04-24T04:20:05;99398.16;;;13.68;100.00
16481;BME280;44634;54.110;12.138;2023-04-24T04:22:35;99397.97;;;13.70;100.00
16481;BME280;44634;54.110;12.138;2023-04-24T04:25:04;99391.53;;;13.79;100.00
16481;BME280;44634;54.110;12.138;2023-04-24T04:27:32;99391.09;;;13.76;100.00
16481;BME280;44634;54.110;12.138;2023-04-24T04:30:00;99386.72;;;13.89;100.00
16481;BME280;44634;54.110;12.138;2023-04-24T04:32:32;99394.16;;;14.00;100.00
16481;BME280;44634;54.110;12.138;2023-04-24T04:35:01;99404.22;;;13.84;100.00
16481;BME280;44634;54.110;12.138;2023-04-24T04:37:29;99407.84;;;13.76;100.00
16481;BME280;44634;54.110;12.138;2023-04-24T04:39:57;99407.03;;;13.76;100.00
16481;BME280;44634;54.110;12.138;2023-04-24T04:42:25;99411.06;;;13.72;100.00
16481;BME280;44634;54.110;12.138;2023-04-24T04:44:53;99398.59;;;13.93;100.00
16481;BME280;44634;54.110;12.138;2023-04-24T04:47:22;99401.38;;;13.85;100.00
16481;BME280;44634;54.110;12.138;2023-04-24T04:49:52;99408.88;;;14.03;100.00
16481;BME280;44634;54.110;12.138;2023-04-24T04:52:19;99404.22;;;13.84;100.00
16481;BME280;44634;54.110;12.138;2023-04-24T04:54:51;99410.38;;;13.63;100.00
16481;BME280;44634;54.110;12.138;2023-04-24T04:57:19;99417.06;;;13.59;100.00
16481;BME280;44634;54.110;12.138;2023-04-24T04:59:47;99398.44;;;14.23;100.00
16481;BME280;44634;54.110;12.138;2023-04-24T05:02:14;99399.63;;;13.92;100.00
16481;BME280;44634;54.110;12.138;2023-04-24T05:04:42;99404.56;;;14.23;100.00
16481;BME280;44634;54.110;12.138;2023-04-24T05:07:12;99405.97;;;14.19;100.00
16481;BME280;44634;54.110;12.138;2023-04-24T05:09:40;99408.47;;;14.27;100.00
16481;BME280;44634;54.110;12.138;2023-04-24T05:12:08;99408.72;;;14.05;100.00
16481;BME280;44634;54.110;12.138;2023-04-24T05:14:36;99401.91;;;14.23;100.00
16481;BME280;44634;54.110;12.138;2023-04-24T05:17:03;99405.50;;;14.16;100.00
16481;BME280;44634;54.110;12.138;2023-04-24T05:19:31;99408.13;;;14.09;100.00
16481;BME280;44634;54.110;12.138;2023-04-24T05:22:02;99404.38;;;14.53;100.00
16481;BME280;44634;54.110;12.138;2023-04-24T05:24:34;99418.09;;;14.56;100.00
16481;BME280;44634;54.110;12.138;2023-04-24T05:27:02;99409.63;;;14.46;100.00
16481;BME280;44634;54.110;12.138;2023-04-24T05:29:31;99404.41;;;14.59;100.00
16481;BME280;44634;54.110;12.138;2023-04-24T05:31:59;99412.72;;;14.22;100.00
16481;BME280;44634;54.110;12.138;2023-04-24T05:34:27;99409.59;;;14.40;100.00
16481;BME280;44634;54.110;12.138;2023-04-24T05:36:55;99417.44;;;14.48;100.00
16481;BME280;44634;54.110;12.138;2023-04-24T05:39:23;99414.97;;;14.46;100.00
16481;BME280;44634;54.110;12.138;2023-04-24T05:41:52;99427.44;;;14.46;100.00
16481;BME280;44634;54.110;12.138;2023-04-24T05:44:21;99418.53;;;14.32;100.00
16481;BME280;44634;54.110;12.138;2023-04-24T05:46:49;99412.97;;;14.48;100.00
16481;BME280;44634;54.110;12.138;2023-04-24T05:49:17;99418.09;;;14.56;100.00
16481;BME280;44634;54.110;12.138;2023-04-24T05:51:44;99419.72;;;14.51;100.00
16481;BME280;44634;54.110;12.138;2023-04-24T05:54:12;99426.28;;;14.55;100.00
16481;BME280;44634;54.110;12.138;2023-04-24T05:56:40;99416.53;;;14.41;100.00
16481;BME280;44634;54.110;12.138;2023-04-24T05:59:10;99421.72;;;15.25;100.00
16481;BME280;44634;54.110;12.138;2023-04-24T06:01:37;99441.69;;;14.66;100.00
16481;BME280;44634;54.110;12.138;2023-04-24T06:04:05;99438.88;;;14.74;100.00
16481;BME280;44634;54.110;12.138;2023-04-24T06:06:34;99440.72;;;14.74;100.00
16481;BME280;44634;54.110;12.138;2023-04-24T06:09:02;99427.19;;;15.10;100.00
16481;BME280;44634;54.110;12.138;2023-04-24T06:11:31;99439.00;;;14.94;100.00
16481;BME280;44634;54.110;12.138;2023-04-24T06:13:58;99476.47;;;15.47;100.00
16481;BME280;44634;54.110;12.138;2023-04-24T06:16:28;99492.81;;;15.31;100.00
16481;BME280;44634;54.110;12.138;2023-04-24T06:18:57;99510.81;;;15.29;100.00
16481;BME280;44634;54.110;12.138;2023-04-24T06:21:25;99538.38;;;16.03;100.00
16481;BME280;44634;54.110;12.138;2023-04-24T06:23:53;99604.81;;;15.98;100.00
16481;BME280;44634;54.110;12.138;2023-04-24T06:26:22;99614.75;;;15.07;100.00
16481;BME280;44634;54.110;12.138;2023-04-24T06:28:51;99640.44;;;15.91;100.00
16481;BME280;44634;54.110;12.138;2023-04-24T06:31:20;99656.78;;;15.74;100.00
16481;BME280;44634;54.110;12.138;2023-04-24T06:33:49;99701.47;;;15.72;100.00
16481;BME280;44634;54.110;12.138;2023-04-24T06:36:17;99745.84;;;16.69;100.00
16481;BME280;44634;54.110;12.138;2023-04-24T06:38:45;99814.66;;;16.39;100.00
16481;BME280;44634;54.110;12.138;2023-04-24T06:41:13;99813.31;;;16.56;100.00
16481;BME280;44634;54.110;12.138;2023-04-24T06:43:40;99786.00;;;16.61;100.00
16481;BME280;44634;54.110;12.138;2023-04-24T06:46:08;99805.19;;;16.78;100.00
16481;BME280;44634;54.110;12.138;2023-04-24T06:48:36;99848.25;;;15.99;100.00
16481;BME280;44634;54.110;12.138;2023-04-24T06:51:05;99865.56;;;17.40;100.00
16481;BME280;44634;54.110;12.138;2023-04-24T06:53:33;99904.59;;;17.28;100.00
16481;BME280;44634;54.110;12.138;2023-04-24T06:56:01;99930.50;;;16.79;100.00
16481;BME280;44634;54.110;12.138;2023-04-24T06:58:30;99930.16;;;16.33;100.00
16481;BME280;44634;54.110;12.138;2023-04-24T07:00:58;99918.22;;;16.63;100.00
16481;BME280;44634;54.110;12.138;2023-04-24T07:03:26;99922.50;;;16.51;100.00
16481;BME280;44634;54.110;12.138;2023-04-24T07:05:54;99938.56;;;16.92;100.00
16481;BME280;44634;54.110;12.138;2023-04-24T07:08:23;99953.63;;;16.72;100.00
16481;BME280;44634;54.110;12.138;2023-04-24T07:10:51;99954.84;;;16.14;100.00
16481;BME280;44634;54.110;12.138;2023-04-24T07:13:19;99938.84;;;17.11;100.00
16481;BME280;44634;54.110;12.138;2023-04-24T07:15:47;99943.66;;;16.87;100.00
16481;BME280;44634;54.110;12.138;2023-04-24T07:18:17;99956.59;;;17.32;100.00
16481;BME280;44634;54.110;12.138;2023-04-24T07:20:45;99949.66;;;16.96;100.00
16481;BME280;44634;54.110;12.138;2023-04-24T07:23:12;99948.69;;;16.69;100.00
16481;BME280;44634;54.110;12.138;2023-04-24T07:25:42;99952.88;;;16.78;100.00
16481;BME280;44634;54.110;12.138;2023-04-24T07:28:10;99945.00;;;17.11;100.00
16481;BME280;44634;54.110;12.138;2023-04-24T07:30:38;99957.81;;;17.29;100.00
16481;BME280;44634;54.110;12.138;2023-04-24T07:33:06;99964.16;;;17.76;100.00
16481;BME280;44634;54.110;12.138;2023-04-24T07:35:33;99965.06;;;17.48;100.00
16481;BME280;44634;54.110;12.138;2023-04-24T07:38:02;99966.84;;;17.21;100.00
16481;BME280;44634;54.110;12.138;2023-04-24T07:40:29;99972.91;;;17.63;100.00
16481;BME280;44634;54.110;12.138;2023-04-24T07:42:59;99969.72;;;17.27;100.00
16481;BME280;44634;54.110;12.138;2023-04-24T07:45:26;99972.47;;;16.99;100.00
16481;BME280;44634;54.110;12.138;2023-04-24T07:47:54;99969.75;;;16.92;100.00
16481;BME280;44634;54.110;12.138;2023-04-24T07:50:22;99976.25;;;17.17;100.00
16481;BME280;44634;54.110;12.138;2023-04-24T07:52:50;99990.38;;;17.05;100.00
16481;BME280;44634;54.110;12.138;2023-04-24T07:55:18;99991.47;;;16.54;100.00
16481;BME280;44634;54.110;12.138;2023-04-24T07:57:49;99996.44;;;17.27;100.00
16481;BME280;44634;54.110;12.138;2023-04-24T08:00:19;99985.00;;;16.98;100.00
16481;BME280;44634;54.110;12.138;2023-04-24T08:02:47;99984.56;;;17.36;100.00
16481;BME280;44634;54.110;12.138;2023-04-24T08:05:15;100001.59;;;17.28;100.00
16481;BME280;44634;54.110;12.138;2023-04-24T08:07:44;100004.75;;;17.04;100.00
16481;BME280;44634;54.110;12.138;2023-04-24T08:10:12;99997.59;;;17.52;100.00
16481;BME280;44634;54.110;12.138;2023-04-24T08:12:40;100005.34;;;17.40;100.00
16481;BME280;44634;54.110;12.138;2023-04-24T08:15:09;100003.19;;;16.32;100.00
16481;BME280;44634;54.110;12.138;2023-04-24T08:17:38;100003.25;;;17.36;100.00
16481;BME280;44634;54.110;12.138;2023-04-24T08:20:11;100012.63;;;16.56;100.00
16481;BME280;44634;54.110;12.138;2023-04-24T08:22:40;99995.97;;;17.10;100.00
16481;BME280;44634;54.110;12.138;2023-04-24T08:25:08;99985.97;;;16.62;100.00
16481;BME280;44634;54.110;12.138;2023-04-24T08:27:36;100001.16;;;16.62;100.00
16481;BME280;44634;54.110;12.138;2023-04-24T08:30:06;100003.38;;;16.52;100.00
16481;BME280;44634;54.110;12.138;2023-04-24T08:32:37;99987.56;;;16.78;100.00
16481;BME280;44634;54.110;12.138;2023-04-24T08:35:06;99989.66;;;16.83;100.00
16481;BME280;44634;54.110;12.138;2023-04-24T08:37:35;99980.84;;;16.61;100.00
16481;BME280;44634;54.110;12.138;2023-04-24T08:40:07;99985.13;;;16.55;100.00
16481;BME280;44634;54.110;12.138;2023-04-24T08:42:39;99987.47;;;17.00;100.00
16481;BME280;44634;54.110;12.138;2023-04-24T08:45:08;99984.72;;;16.80;100.00
16481;BME280;44634;54.110;12.138;2023-04-24T08:47:39;99996.31;;;16.44;100.00
16481;BME280;44634;54.110;12.138;2023-04-24T08:50:07;99987.13;;;16.75;100.00
16481;BME280;44634;54.110;12.138;2023-04-24T08:52:36;99987.19;;;16.60;100.00
16481;BME280;44634;54.110;12.138;2023-04-24T08:55:05;100001.16;;;16.62;100.00
16481;BME280;44634;54.110;12.138;2023-04-24T08:57:33;100006.03;;;16.52;100.00
16481;BME280;44634;54.110;12.138;2023-04-24T09:00:02;100004.28;;;17.28;100.00
16481;BME280;44634;54.110;12.138;2023-04-24T09:02:31;100002.69;;;16.99;100.00
16481;BME280;44634;54.110;12.138;2023-04-24T09:05:02;100006.59;;;17.03;100.00
16481;BME280;44634;54.110;12.138;2023-04-24T09:07:34;100003.84;;;16.90;100.00
16481;BME280;44634;54.110;12.138;2023-04-24T09:10:03;100000.78;;;17.28;100.00
16481;BME280;44634;54.110;12.138;2023-04-24T09:12:31;100009.00;;;16.91;100.00
16481;BME280;44634;54.110;12.138;2023-04-24T09:15:00;100006.09;;;17.69;100.00
16481;BME280;44634;54.110;12.138;2023-04-24T09:17:28;100018.47;;;16.94;100.00
16481;BME280;44634;54.110;12.138;2023-04-24T09:19:56;100005.34;;;18.34;100.00
16481;BME280;44634;54.110;12.138;2023-04-24T09:22:25;100007.38;;;17.86;100.00
16481;BME280;44634;54.110;12.138;2023-04-24T09:25:01;100013.19;;;18.23;100.00
16481;BME280;44634;54.110;12.138;2023-04-24T09:27:29;100017.22;;;17.79;100.00
16481;BME280;44634;54.110;12.138;2023-04-24T09:29:58;100018.16;;;17.51;100.00
16481;BME280;44634;54.110;12.138;2023-04-24T09:32:27;100015.59;;;17.91;100.00
16481;BME280;44634;54.110;12.138;2023-04-24T09:35:07;100002.06;;;18.65;100.00
16481;BME280;44634;54.110;12.138;2023-04-24T09:37:37;100014.22;;;18.75;100.00
16481;BME280;44634;54.110;12.138;2023-04-24T09:40:10;100027.38;;;18.50;100.00
16481;BME280;44634;54.110;12.138;2023-04-24T09:42:39;100012.56;;;18.34;100.00
16481;BME280;44634;54.110;12.138;2023-04-24T09:45:10;100011.34;;;18.56;100.00
16481;BME280;44634;54.110;12.138;2023-04-24T09:47:41;100013.94;;;19.74;92.45
16481;BME280;44634;54.110;12.138;2023-04-24T09:50:12;100009.31;;;19.87;97.42
16481;BME280;44634;54.110;12.138;2023-04-24T09:52:43;100019.47;;;19.21;96.11
16481;BME280;44634;54.110;12.138;2023-04-24T09:55:13;100001.94;;;19.76;97.30
16481;BME280;44634;54.110;12.138;2023-04-24T09:57:51;99999.03;;;19.78;98.63
16481;BME280;44634;54.110;12.138;2023-04-24T10:00:21;100001.31;;;19.23;100.00
16481;BME280;44634;54.110;12.138;2023-04-24T10:02:50;99998.31;;;19.51;100.00
16481;BME280;44634;54.110;12.138;2023-04-24T10:05:23;100013.91;;;20.43;96.90
16481;BME280;44634;54.110;12.138;2023-04-24T10:07:56;100022.88;;;20.99;88.24
16481;BME280;44634;54.110;12.138;2023-04-24T10:10:24;100004.22;;;21.89;78.44
16481;BME280;44634;54.110;12.138;2023-04-24T10:12:52;100006.88;;;19.28;89.19
16481;BME280;44634;54.110;12.138;2023-04-24T10:15:20;100019.53;;;21.03;88.23
16481;BME280;44634;54.110;12.138;2023-04-24T10:17:49;100008.91;;;21.08;84.97
16481;BME280;44634;54.110;12.138;2023-04-24T10:20:20;100017.22;;;20.64;87.09
16481;BME280;44634;54.110;12.138;2023-04-24T10:22:50;100011.81;;;19.82;96.01
16481;BME280;44634;54.110;12.138;2023-04-24T10:25:21;100020.00;;;18.71;100.00
16481;BME280;44634;54.110;12.138;2023-04-24T10:27:50;100026.56;;;18.29;100.00
16481;BME280;44634;54.110;12.138;2023-04-24T10:30:19;100012.94;;;19.03;100.00
16481;BME280;44634;54.110;12.138;2023-04-24T10:32:47;100009.47;;;18.57;100.00
16481;BME280;44634;54.110;12.138;2023-04-24T10:35:15;100018.31;;;18.51;100.00
16481;BME280;44634;54.110;12.138;2023-04-24T10:37:48;100027.75;;;18.07;100.00
16481;BME280;44634;54.110;12.138;2023-04-24T10:40:26;100023.88;;;18.49;100.00
16481;BME280;44634;54.110;12.138;2023-04-24T10:42:55;100011.59;;;19.32;100.00
16481;BME280;44634;54.110;12.138;2023-04-24T10:45:24;100018.28;;;19.03;100.00
16481;BME280;44634;54.110;12.138;2023-04-24T10:47:56;100011.75;;;18.86;100.00
16481;BME280;44634;54.110;12.138;2023-04-24T10:50:26;100015.47;;;18.65;100.00
16481;BME280;44634;54.110;12.138;2023-04-24T10:53:05;100014.22;;;18.88;100.00
16481;BME280;44634;54.110;12.138;2023-04-24T10:55:42;100001.03;;;18.80;100.00
16481;BME280;44634;54.110;12.138;2023-04-24T10:58:10;100017.09;;;18.80;100.00
16481;BME280;44634;54.110;12.138;2023-04-24T11:00:39;100023.09;;;18.82;100.00
16481;BME280;44634;54.110;12.138;2023-04-24T11:03:23;100020.44;;;18.68;100.00
16481;BME280;44634;54.110;12.138;2023-04-24T11:05:59;100013.81;;;18.31;100.00
16481;BME280;44634;54.110;12.138;2023-04-24T11:08:32;100018.53;;;18.16;100.00
16481;BME280;44634;54.110;12.138;2023-04-24T11:11:07;100013.63;;;18.53;100.00
16481;BME280;44634;54.110;12.138;2023-04-24T11:14:04;100011.09;;;18.91;100.00
16481;BME280;44634;54.110;12.138;2023-04-24T11:16:34;100004.91;;;19.10;100.00
16481;BME280;44634;54.110;12.138;2023-04-24T11:19:06;100008.06;;;18.41;100.00
16481;BME280;44634;54.110;12.138;2023-04-24T11:21:42;100001.97;;;19.18;100.00
16481;BME280;44634;54.110;12.138;2023-04-24T11:24:27;100000.72;;;19.72;100.00
16481;BME280;44634;54.110;12.138;2023-04-24T11:26:58;99981.72;;;20.05;100.00
16481;BME280;44634;54.110;12.138;2023-04-24T11:29:42;99989.88;;;19.54;100.00
16481;BME280;44634;54.110;12.138;2023-04-24T11:32:24;99978.31;;;19.91;100.00
16481;BME280;44634;54.110;12.138;2023-04-24T11:34:54;99985.41;;;19.35;100.00
16481;BME280;44634;54.110;12.138;2023-04-24T11:37:22;99991.41;;;19.23;100.00
16481;BME280;44634;54.110;12.138;2023-04-24T11:39:52;99993.13;;;19.69;100.00
16481;BME280;44634;54.110;12.138;2023-04-24T11:42:21;99996.50;;;19.89;100.00
16481;BME280;44634;54.110;12.138;2023-04-24T11:44:52;99995.56;;;19.19;100.00
16481;BME280;44634;54.110;12.138;2023-04-24T11:47:27;99995.69;;;19.38;100.00
16481;BME280;44634;54.110;12.138;2023-04-24T11:49:55;99977.25;;;19.68;100.00
16481;BME280;44634;54.110;12.138;2023-04-24T11:52:23;99983.81;;;19.72;100.00
16481;BME280;44634;54.110;12.138;2023-04-24T11:54:51;99983.50;;;20.18;100.00
16481;BME280;44634;54.110;12.138;2023-04-24T11:57:21;99979.97;;;20.49;100.00
16481;BME280;44634;54.110;12.138;2023-04-24T11:59:49;99997.84;;;20.05;100.00
16481;BME280;44634;54.110;12.138;2023-04-24T12:02:21;99980.25;;;20.09;100.00
16481;BME280;44634;54.110;12.138;2023-04-24T12:04:50;99981.31;;;21.68;93.53
16481;BME280;44634;54.110;12.138;2023-04-24T12:07:18;99969.31;;;22.36;82.84
16481;BME280;44634;54.110;12.138;2023-04-24T12:09:49;99971.13;;;21.03;95.43
16481;BME280;44634;54.110;12.138;2023-04-24T12:12:18;99970.06;;;20.18;100.00
16481;BME280;44634;54.110;12.138;2023-04-24T12:14:53;99977.50;;;19.59;100.00
16481;BME280;44634;54.110;12.138;2023-04-24T12:17:25;99981.84;;;18.96;100.00
16481;BME280;44634;54.110;12.138;2023-04-24T12:19:57;99987.41;;;18.94;100.00
16481;BME280;44634;54.110;12.138;2023-04-24T12:22:26;99982.25;;;18.99;100.00
16481;BME280;44634;54.110;12.138;2023-04-24T12:25:01;99998.47;;;19.24;100.00
16481;BME280;44634;54.110;12.138;2023-04-24T12:27:30;99975.84;;;18.94;100.00
16481;BME280;44634;54.110;12.138;2023-04-24T12:30:03;99980.03;;;18.70;100.00
16481;BME280;44634;54.110;12.138;2023-04-24T12:32:31;99970.13;;;18.77;100.00
16481;BME280;44634;54.110;12.138;2023-04-24T12:34:59;99976.34;;;18.18;100.00
16481;BME280;44634;54.110;12.138;2023-04-24T12:37:32;99990.72;;;17.91;100.00
16481;BME280;44634;54.110;12.138;2023-04-24T12:40:04;99989.25;;;17.81;100.00
16481;BME280;44634;54.110;12.138;2023-04-24T12:42:34;100014.47;;;17.11;100.00
16481;BME280;44634;54.110;12.138;2023-04-24T12:45:05;99991.78;;;16.66;100.00
16481;BME280;44634;54.110;12.138;2023-04-24T12:47:34;99977.34;;;16.88;100.00